createdAt,value
2022-09-01T00:00:06.277Z,101692.13
2022-09-01T00:02:34.244Z,101696.56
2022-09-01T00:05:04.692Z,101699.19
2022-09-01T00:07:31.527Z,101695.69
2022-09-01T00:10:02.182Z,101696.56
2022-09-01T00:12:29.450Z,101694.78
2022-09-01T00:14:56.431Z,101698.31
2022-09-01T00:17:23.109Z,101708.88
2022-09-01T00:19:49.774Z,101710.66
2022-09-01T00:22:16.636Z,101706.25
2022-09-01T00:24:43.322Z,101706.25
2022-09-01T00:27:09.986Z,101701.84
2022-09-01T00:29:36.792Z,101706.25
2022-09-01T00:32:04.170Z,101704.50
2022-09-01T00:34:30.969Z,101709.75
2022-09-01T00:36:57.577Z,101707.13
2022-09-01T00:39:24.350Z,101702.72
2022-09-01T00:41:51.714Z,101702.72
2022-09-01T00:44:24.347Z,101710.66
2022-09-01T00:46:55.984Z,101704.50
2022-09-01T00:49:34.964Z,101700.97
2022-09-01T00:52:09.197Z,101698.34
2022-09-01T00:54:40.067Z,101701.88
2022-09-01T00:57:09.134Z,101694.84
2022-09-01T00:59:36.719Z,101692.19
2022-09-01T01:02:03.379Z,101698.34
2022-09-01T01:04:31.524Z,101685.16
2022-09-01T01:07:01.617Z,101684.31
2022-09-01T01:09:31.766Z,101691.31
2022-09-01T01:12:00.222Z,101680.75
2022-09-01T01:14:29.709Z,101690.44
2022-09-01T01:16:56.386Z,101688.69
2022-09-01T01:19:46.246Z,101693.94
2022-09-01T01:22:53.639Z,101684.25
2022-09-01T01:25:22.419Z,101683.34
2022-09-01T01:27:49.056Z,101681.59
2022-09-01T01:30:19.086Z,101691.28
2022-09-01T01:32:47.595Z,101680.75
2022-09-01T01:35:16.584Z,101684.22
2022-09-01T01:37:45.860Z,101677.22
2022-09-01T01:40:15.865Z,101667.53
2022-09-01T01:42:48.352Z,101683.34
2022-09-01T01:45:18.002Z,101676.31
2022-09-01T01:47:53.134Z,101674.53
2022-09-01T01:50:33.534Z,101677.19
2022-09-01T01:53:03.016Z,101671.88
2022-09-01T01:55:37.954Z,101665.69
2022-09-01T01:58:05.221Z,101671.84
2022-09-01T02:00:34.629Z,101673.63
2022-09-01T02:03:01.398Z,101674.47
2022-09-01T02:05:33.208Z,101674.50
2022-09-01T02:08:05.800Z,101673.59
2022-09-01T02:10:35.865Z,101674.41
2022-09-01T02:13:07.095Z,101672.69
2022-09-01T02:15:42.626Z,101674.44
2022-09-01T02:18:20.161Z,101670.91
2022-09-01T02:20:49.422Z,101670.06
2022-09-01T02:23:23.286Z,101670.03
2022-09-01T02:26:15.263Z,101667.38
2022-09-01T02:28:42.613Z,101672.63
2022-09-01T02:31:11.301Z,101676.13
2022-09-01T02:33:39.130Z,101673.50
2022-09-01T02:36:10.057Z,101669.97
2022-09-01T02:38:36.955Z,101662.97
2022-09-01T02:41:06.062Z,101660.28
2022-09-01T02:43:33.819Z,101662.09
2022-09-01T02:46:02.665Z,101672.56
2022-09-01T02:48:32.966Z,101661.97
2022-09-01T02:51:02.110Z,101664.69
2022-09-01T02:53:30.830Z,101669.88
2022-09-01T02:55:59.539Z,101662.84
2022-09-01T02:58:27.151Z,101668.09
2022-09-01T03:00:56.627Z,101664.50
2022-09-01T03:03:24.281Z,101658.38
2022-09-01T03:05:56.239Z,101662.75
2022-09-01T03:08:24.534Z,101661.88
2022-09-01T03:10:53.860Z,101662.72
2022-09-01T03:13:23.861Z,101674.06
2022-09-01T03:15:51.014Z,101664.41
2022-09-01T03:18:18.890Z,101664.41
2022-09-01T03:20:46.654Z,101674.09
2022-09-01T03:23:19.215Z,101662.66
2022-09-01T03:25:48.030Z,101662.66
2022-09-01T03:28:15.299Z,101660.84
2022-09-01T03:30:51.105Z,101660.78
2022-09-01T03:33:19.764Z,101665.22
2022-09-01T03:35:47.983Z,101659.97
2022-09-01T03:38:21.021Z,101665.16
2022-09-01T03:40:49.419Z,101669.56
2022-09-01T03:43:16.993Z,101665.19
2022-09-01T03:45:43.847Z,101664.28
2022-09-01T03:48:10.602Z,101657.28
2022-09-01T03:50:41.066Z,101660.75
2022-09-01T03:53:08.280Z,101665.94
2022-09-01T03:55:37.530Z,101663.34
2022-09-01T03:58:10.187Z,101667.78
2022-09-01T04:00:40.109Z,101673.06
2022-09-01T04:03:08.991Z,101667.75
2022-09-01T04:05:37.713Z,101663.41
2022-09-01T04:08:07.412Z,101663.34
2022-09-01T04:10:35.734Z,101665.13
2022-09-01T04:13:02.831Z,101656.28
2022-09-01T04:15:30.195Z,101662.34
2022-09-01T04:18:20.313Z,101662.34
2022-09-01T04:20:56.859Z,101664.97
2022-09-01T04:23:33.523Z,101660.59
2022-09-01T04:26:13.192Z,101660.56
2022-09-01T04:28:45.561Z,101658.78
2022-09-01T04:31:20.466Z,101656.16
2022-09-01T04:33:52.861Z,101655.31
2022-09-01T04:36:31.771Z,101657.88
2022-09-01T04:39:00.990Z,101655.22
2022-09-01T04:41:32.087Z,101652.63
2022-09-01T04:44:04.917Z,101653.59
2022-09-01T04:46:35.643Z,101654.53
2022-09-01T04:49:08.120Z,101650.06
2022-09-01T04:51:41.684Z,101655.34
2022-09-01T04:54:14.265Z,101653.66
2022-09-01T04:56:46.252Z,101653.59
2022-09-01T04:59:13.736Z,101661.47
2022-09-01T05:01:45.121Z,101659.72
2022-09-01T05:04:33.941Z,101668.63
2022-09-01T05:07:01.756Z,101664.13
2022-09-01T05:09:31.052Z,101670.25
2022-09-01T05:11:58.229Z,101665.88
2022-09-01T05:14:25.667Z,101667.59
2022-09-01T05:16:58.834Z,101655.41
2022-09-01T05:19:28.951Z,101658.97
2022-09-01T05:21:57.890Z,101657.16
2022-09-01T05:24:30.489Z,101658.03
2022-09-01T05:27:00.105Z,101654.59
2022-09-01T05:29:27.733Z,101643.19
2022-09-01T05:31:58.723Z,101651.13
2022-09-01T05:34:30.839Z,101643.25
2022-09-01T05:36:59.524Z,101651.13
2022-09-01T05:39:27.395Z,101656.47
2022-09-01T05:41:54.049Z,101657.34
2022-09-01T05:44:24.648Z,101656.47
2022-09-01T05:46:51.381Z,101660.91
2022-09-01T05:49:18.830Z,101656.56
2022-09-01T05:51:50.432Z,101657.44
2022-09-01T05:54:27.442Z,101664.50
2022-09-01T05:57:02.167Z,101661.88
2022-09-01T05:59:35.480Z,101656.66
2022-09-01T06:02:02.848Z,101663.78
2022-09-01T06:04:30.315Z,101653.31
2022-09-01T06:07:05.688Z,101655.94
2022-09-01T06:09:39.385Z,101659.44
2022-09-01T06:12:06.846Z,101660.38
2022-09-01T06:14:34.740Z,101667.53
2022-09-01T06:17:03.171Z,101653.47
2022-09-01T06:19:33.598Z,101659.66
2022-09-01T06:22:03.002Z,101657.88
2022-09-01T06:24:30.002Z,101656.00
2022-09-01T06:26:56.618Z,101656.63
2022-09-01T06:29:23.270Z,101645.44
2022-09-01T06:31:52.735Z,101648.34
2022-09-01T06:34:19.948Z,101646.69
2022-09-01T06:36:48.560Z,101654.09
2022-09-01T06:39:22.230Z,101647.16
2022-09-01T06:41:52.839Z,101643.94
2022-09-01T06:44:23.113Z,101638.53
2022-09-01T06:46:51.648Z,101656.66
2022-09-01T06:49:21.482Z,101661.44
2022-09-01T06:51:51.739Z,101661.84
2022-09-01T06:54:21.087Z,101654.50
2022-09-01T06:56:51.849Z,101662.13
2022-09-01T06:59:20.859Z,101655.19
2022-09-01T07:01:49.186Z,101656.78
2022-09-01T07:04:20.191Z,101660.91
2022-09-01T07:07:00.354Z,101652.00
2022-09-01T07:09:47.112Z,101649.31
2022-09-01T07:12:27.715Z,101655.38
2022-09-01T07:17:57.046Z,101655.94
2022-09-01T07:20:27.725Z,101658.47
2022-09-01T07:23:04.453Z,101669.38
2022-09-01T07:26:00.380Z,101661.94
2022-09-01T07:28:25.489Z,101666.22
2022-09-01T07:30:53.218Z,101659.38
2022-09-01T07:36:26.836Z,101665.09
2022-09-01T07:44:28.689Z,101669.78
2022-09-01T07:52:29.272Z,101676.34
2022-09-01T07:54:56.081Z,101668.56
2022-09-01T07:57:22.966Z,101668.91
2022-09-01T07:59:51.775Z,101678.97
2022-09-01T08:02:18.547Z,101674.34
2022-09-01T08:04:46.076Z,101676.16
2022-09-01T08:07:16.177Z,101672.69
2022-09-01T08:09:44.137Z,101681.25
2022-09-01T08:12:11.184Z,101672.91
2022-09-01T08:14:37.825Z,101674.66
2022-09-01T08:19:53.517Z,101683.38
2022-09-01T08:22:25.269Z,101679.34
2022-09-01T08:24:52.841Z,101671.69
2022-09-01T08:27:19.946Z,101678.25
2022-09-01T08:29:46.589Z,101671.97
2022-09-01T08:32:13.264Z,101679.22
2022-09-01T08:34:40.002Z,101674.94
2022-09-01T08:37:06.927Z,101668.25
2022-09-01T08:39:33.570Z,101674.75
2022-09-01T08:42:12.192Z,101675.88
2022-09-01T08:44:46.054Z,101676.97
2022-09-01T08:47:15.571Z,101677.41
2022-09-01T08:49:46.097Z,101678.84
2022-09-01T08:52:26.907Z,101684.19
2022-09-01T08:55:10.307Z,101691.53
2022-09-01T08:57:39.583Z,101681.59
2022-09-01T09:00:13.683Z,101673.00
2022-09-01T09:03:02.163Z,101667.31
2022-09-01T09:05:49.114Z,101661.59
2022-09-01T09:08:53.194Z,101661.47
2022-09-01T09:11:27.430Z,101666.50
2022-09-01T09:14:00.042Z,101662.44
2022-09-01T09:16:37.880Z,101653.13
2022-09-01T09:19:28.414Z,101657.47
2022-09-01T09:21:57.075Z,101652.59
2022-09-01T09:24:50.105Z,101656.59
2022-09-01T09:27:38.434Z,101649.63
2022-09-01T09:30:27.037Z,101661.72
2022-09-01T09:35:46.650Z,101648.53
2022-09-01T09:38:21.490Z,101661.69
2022-09-01T09:41:19.858Z,101658.50
2022-09-01T09:44:01.086Z,101655.22
2022-09-01T09:46:27.750Z,101659.53
2022-09-01T09:49:21.677Z,101658.38
2022-09-01T09:52:08.734Z,101651.09
2022-09-01T09:54:37.500Z,101649.63
2022-09-01T09:57:09.207Z,101654.44
2022-09-01T10:00:00.881Z,101658.13
2022-09-01T10:02:35.447Z,101644.06
2022-09-01T10:05:17.617Z,101654.34
2022-09-01T10:07:44.827Z,101651.03
2022-09-01T10:10:56.505Z,101656.75
2022-09-01T10:13:26.945Z,101651.66
2022-09-01T10:15:56.801Z,101652.09
2022-09-01T10:18:41.394Z,101654.56
2022-09-01T10:21:34.911Z,101651.34
2022-09-01T10:24:27.074Z,101652.31
2022-09-01T10:26:57.367Z,101653.88
2022-09-01T10:30:12.078Z,101646.75
2022-09-01T10:33:10.981Z,101659.59
2022-09-01T10:35:48.488Z,101657.19
2022-09-01T10:38:20.067Z,101654.66
2022-09-01T10:40:50.897Z,101662.16
2022-09-01T10:43:26.009Z,101660.59
2022-09-01T10:45:57.928Z,101662.41
2022-09-01T10:48:36.525Z,101668.84
2022-09-01T10:51:18.233Z,101668.38
2022-09-01T10:53:51.278Z,101661.28
2022-09-01T10:56:35.463Z,101661.25
2022-09-01T10:59:41.906Z,101662.72
2022-09-01T11:02:26.411Z,101656.03
2022-09-01T11:04:54.944Z,101649.28
2022-09-01T11:07:31.607Z,101651.06
2022-09-01T11:10:32.746Z,101647.09
2022-09-01T11:13:29.128Z,101645.44
2022-09-01T11:16:00.350Z,101642.63
2022-09-01T11:18:30.743Z,101635.63
2022-09-01T11:21:15.452Z,101631.75
2022-09-01T11:23:42.679Z,101635.69
2022-09-01T11:26:46.224Z,101636.63
2022-09-01T11:29:51.414Z,101631.19
2022-09-01T11:32:21.498Z,101632.19
2022-09-01T11:34:49.960Z,101627.03
2022-09-01T11:37:18.849Z,101627.63
2022-09-01T11:39:51.505Z,101626.66
2022-09-01T11:42:19.576Z,101625.88
2022-09-01T11:45:00.905Z,101632.91
2022-09-01T11:47:32.809Z,101629.59
2022-09-01T11:50:02.572Z,101628.56
2022-09-01T11:52:32.323Z,101620.88
2022-09-01T11:54:59.836Z,101635.47
2022-09-01T11:57:37.326Z,101630.09
2022-09-01T12:00:09.271Z,101622.84
2022-09-01T12:02:42.573Z,101626.56
2022-09-01T12:05:29.293Z,101623.16
2022-09-01T12:07:56.669Z,101618.66
2022-09-01T12:10:35.651Z,101618.69
2022-09-01T12:13:08.247Z,101616.88
2022-09-01T12:15:36.612Z,101610.84
2022-09-01T12:18:31.098Z,101613.94
2022-09-01T12:20:59.850Z,101612.81
2022-09-01T12:23:28.047Z,101601.81
2022-09-01T12:25:56.613Z,101602.84
2022-09-01T12:28:31.005Z,101608.09
2022-09-01T12:31:07.742Z,101603.03
2022-09-01T12:33:35.174Z,101610.06
2022-09-01T12:36:24.174Z,101609.75
2022-09-01T12:38:52.822Z,101608.88
2022-09-01T12:41:36.625Z,101598.16
2022-09-01T12:44:32.520Z,101592.03
2022-09-01T12:47:02.496Z,101597.41
2022-09-01T12:49:50.581Z,101597.41
2022-09-01T12:52:19.998Z,101594.22
2022-09-01T12:54:52.324Z,101586.66
2022-09-01T12:57:30.826Z,101586.91
2022-09-01T13:00:11.463Z,101584.00
2022-09-01T13:02:40.713Z,101579.94
2022-09-01T13:05:41.707Z,101574.38
2022-09-01T13:08:14.368Z,101573.09
2022-09-01T13:10:49.329Z,101571.19
2022-09-01T13:13:16.877Z,101576.19
2022-09-01T13:15:48.219Z,101567.47
2022-09-01T13:18:16.512Z,101576.22
2022-09-01T13:20:43.527Z,101574.59
2022-09-01T13:23:12.578Z,101570.41
2022-09-01T13:25:44.443Z,101579.06
2022-09-01T13:28:11.516Z,101588.94
2022-09-01T13:33:21.239Z,101594.06
2022-09-01T13:35:50.396Z,101595.88
2022-09-01T13:38:18.081Z,101588.91
2022-09-01T13:40:47.185Z,101587.22
2022-09-01T13:43:15.707Z,101596.38
2022-09-01T13:45:45.200Z,101603.81
2022-09-01T13:48:16.244Z,101596.09
2022-09-01T13:53:32.752Z,101595.00
2022-09-01T13:55:59.581Z,101594.09
2022-09-01T13:58:26.383Z,101588.31
2022-09-01T14:00:54.091Z,101589.00
2022-09-01T14:03:23.387Z,101592.66
2022-09-01T14:05:50.211Z,101595.69
2022-09-01T14:08:19.698Z,101592.88
2022-09-01T14:10:51.030Z,101589.88
2022-09-01T14:13:20.279Z,101585.44
2022-09-01T14:15:48.371Z,101591.16
2022-09-01T14:18:16.267Z,101591.75
2022-09-01T14:20:45.940Z,101581.03
2022-09-01T14:23:13.875Z,101587.94
2022-09-01T14:25:46.595Z,101578.53
2022-09-01T14:28:13.700Z,101579.63
2022-09-01T14:30:43.501Z,101584.16
2022-09-01T14:33:11.130Z,101570.09
2022-09-01T14:35:40.241Z,101572.38
2022-09-01T14:38:08.613Z,101569.91
2022-09-01T14:40:38.242Z,101566.91
2022-09-01T14:43:06.970Z,101564.31
2022-09-01T14:45:33.751Z,101564.56
2022-09-01T14:48:01.092Z,101560.44
2022-09-01T14:50:35.026Z,101562.06
2022-09-01T14:53:02.488Z,101566.25
2022-09-01T14:55:30.654Z,101563.66
2022-09-01T14:57:57.816Z,101560.09
2022-09-01T15:00:27.499Z,101562.78
2022-09-01T15:02:55.548Z,101552.06
2022-09-01T15:05:23.251Z,101559.59
2022-09-01T15:07:50.869Z,101544.44
2022-09-01T15:10:24.796Z,101553.97
2022-09-01T15:12:54.360Z,101541.16
2022-09-01T15:15:21.171Z,101542.03
2022-09-01T15:17:47.897Z,101545.41
2022-09-01T15:20:33.124Z,101529.41
2022-09-01T15:23:01.504Z,101541.56
2022-09-01T15:25:28.319Z,101542.28
2022-09-01T15:27:54.951Z,101536.19
2022-09-01T15:30:21.965Z,101541.13
2022-09-01T15:32:51.245Z,101541.75
2022-09-01T15:35:19.164Z,101535.50
2022-09-01T15:37:47.664Z,101535.47
2022-09-01T15:40:14.454Z,101523.66
2022-09-01T15:42:41.277Z,101528.28
2022-09-01T15:45:11.434Z,101523.66
2022-09-01T15:47:40.370Z,101527.22
2022-09-01T15:50:17.348Z,101529.81
2022-09-01T15:52:52.974Z,101521.91
2022-09-01T15:55:43.346Z,101528.16
2022-09-01T15:58:11.370Z,101527.53
2022-09-01T16:00:38.632Z,101533.19
2022-09-01T16:03:06.142Z,101534.28
2022-09-01T16:05:35.148Z,101531.31
2022-09-01T16:08:03.100Z,101536.66
2022-09-01T16:10:32.453Z,101529.25
2022-09-01T16:13:01.964Z,101532.84
2022-09-01T16:15:28.594Z,101527.09
2022-09-01T16:18:13.613Z,101518.88
2022-09-01T16:20:55.655Z,101520.84
2022-09-01T16:23:25.343Z,101515.00
2022-09-01T16:25:53.694Z,101515.41
2022-09-01T16:28:47.569Z,101524.81
2022-09-01T16:31:21.184Z,101516.75
2022-09-01T16:33:51.399Z,101506.69
2022-09-01T16:36:40.062Z,101511.97
2022-09-01T16:39:10.528Z,101514.03
2022-09-01T16:41:44.625Z,101515.25
2022-09-01T16:44:19.941Z,101518.16
2022-09-01T16:46:57.576Z,101521.41
2022-09-01T16:49:33.210Z,101511.25
2022-09-01T16:52:25.421Z,101509.69
2022-09-01T16:55:13.163Z,101514.81
2022-09-01T16:58:10.133Z,101506.16
2022-09-01T17:01:17.218Z,101507.03
2022-09-01T17:03:54.217Z,101506.44
2022-09-01T17:06:34.051Z,101502.34
2022-09-01T17:09:10.976Z,101495.97
2022-09-01T17:11:49.518Z,101498.66
2022-09-01T17:14:27.794Z,101501.34
2022-09-01T17:17:04.317Z,101501.13
2022-09-01T17:19:31.385Z,101509.06
2022-09-01T17:22:07.523Z,101496.47
2022-09-01T17:24:49.509Z,101509.91
2022-09-01T17:27:32.004Z,101507.75
2022-09-01T17:29:59.856Z,101506.94
2022-09-01T17:32:43.164Z,101515.69
2022-09-01T17:35:30.432Z,101506.34
2022-09-01T17:38:03.726Z,101514.91
2022-09-01T17:41:12.519Z,101514.63
2022-09-01T17:44:00.225Z,101507.91
2022-09-01T17:47:12.656Z,101515.19
2022-09-01T17:50:04.408Z,101514.53
2022-09-01T17:52:59.013Z,101518.50
2022-09-01T17:55:32.586Z,101524.66
2022-09-01T17:58:09.588Z,101521.13
2022-09-01T18:00:47.597Z,101533.25
2022-09-01T18:03:36.131Z,101534.63
2022-09-01T18:06:09.013Z,101535.41
2022-09-01T18:08:48.914Z,101535.56
2022-09-01T18:11:23.909Z,101541.59
2022-09-01T18:14:04.087Z,101536.38
2022-09-01T18:16:47.157Z,101536.72
2022-09-01T18:19:21.210Z,101542.41
2022-09-01T18:21:49.614Z,101542.63
2022-09-01T18:24:20.794Z,101537.47
2022-09-01T18:26:50.281Z,101542.03
2022-09-01T18:29:17.410Z,101546.78
2022-09-01T18:31:50.185Z,101554.94
2022-09-01T18:34:47.746Z,101550.94
2022-09-01T18:37:36.386Z,101556.66
2022-09-01T18:40:19.654Z,101558.75
2022-09-01T18:43:05.086Z,101566.91
2022-09-01T18:45:35.683Z,101569.59
2022-09-01T18:48:24.044Z,101568.84
2022-09-01T18:50:59.167Z,101568.19
2022-09-01T18:53:37.738Z,101577.94
2022-09-01T18:56:20.315Z,101573.69
2022-09-01T18:58:56.896Z,101572.06
2022-09-01T19:01:32.223Z,101581.03
2022-09-01T19:04:22.643Z,101582.84
2022-09-01T19:07:19.415Z,101584.03
2022-09-01T19:10:18.571Z,101587.91
2022-09-01T19:13:01.422Z,101584.47
2022-09-01T19:15:33.532Z,101584.53
2022-09-01T19:18:13.942Z,101587.22
2022-09-01T19:20:55.434Z,101588.44
2022-09-01T19:23:26.359Z,101591.31
2022-09-01T19:25:59.448Z,101590.41
2022-09-01T19:28:47.890Z,101592.31
2022-09-01T19:31:27.265Z,101588.69
2022-09-01T19:34:03.491Z,101590.63
2022-09-01T19:36:39.295Z,101599.50
2022-09-01T19:39:08.715Z,101592.66
2022-09-01T19:41:39.593Z,101591.88
2022-09-01T19:44:37.299Z,101590.25
2022-09-01T19:47:11.129Z,101588.53
2022-09-01T19:49:49.509Z,101589.44
2022-09-01T19:52:43.457Z,101581.72
2022-09-01T19:55:13.071Z,101591.56
2022-09-01T19:57:45.547Z,101592.47
2022-09-01T20:00:50.799Z,101589.91
2022-09-01T20:03:36.301Z,101593.63
2022-09-01T20:06:12.485Z,101598.00
2022-09-01T20:08:55.484Z,101594.66
2022-09-01T20:11:40.676Z,101597.50
2022-09-01T20:14:38.722Z,101592.16
2022-09-01T20:17:07.741Z,101598.34
2022-09-01T20:19:53.708Z,101604.50
2022-09-01T20:22:39.496Z,101594.75
2022-09-01T20:25:12.978Z,101596.59
2022-09-01T20:27:47.537Z,101598.31
2022-09-01T20:30:19.934Z,101595.72
2022-09-01T20:33:05.502Z,101594.88
2022-09-01T20:35:40.697Z,101597.72
2022-09-01T20:38:42.053Z,101592.47
2022-09-01T20:41:21.186Z,101597.81
2022-09-01T20:43:53.136Z,101600.50
2022-09-01T20:46:24.247Z,101603.06
2022-09-01T20:48:53.942Z,101601.31
2022-09-01T20:51:41.588Z,101609.31
2022-09-01T20:54:27.857Z,101612.09
2022-09-01T20:57:18.763Z,101603.34
2022-09-01T20:59:50.165Z,101608.78
2022-09-01T21:02:38.447Z,101610.63
2022-09-01T21:05:23.106Z,101615.88
2022-09-01T21:08:00.170Z,101615.03
2022-09-01T21:10:40.094Z,101613.28
2022-09-01T21:13:13.603Z,101614.25
2022-09-01T21:15:50.504Z,101622.13
2022-09-01T21:18:46.705Z,101616.81
2022-09-01T21:21:36.160Z,101616.88
2022-09-01T21:24:04.275Z,101619.59
2022-09-01T21:26:31.557Z,101608.97
2022-09-01T21:28:59.148Z,101615.97
2022-09-01T21:31:25.827Z,101620.41
2022-09-01T21:33:52.493Z,101615.06
2022-09-01T21:36:19.202Z,101618.66
2022-09-01T21:38:45.854Z,101619.56
2022-09-01T21:41:13.362Z,101623.97
2022-09-01T21:43:42.030Z,101613.41
2022-09-01T21:46:09.997Z,101611.66
2022-09-01T21:48:36.872Z,101618.78
2022-09-01T21:51:06.478Z,101608.25
2022-09-01T21:53:33.310Z,101610.00
2022-09-01T21:56:02.751Z,101611.88
2022-09-01T21:58:31.720Z,101609.28
2022-09-01T22:00:58.686Z,101612.84
2022-09-01T22:03:25.559Z,101611.97
2022-09-01T22:05:52.436Z,101606.72
2022-09-01T22:08:19.459Z,101611.13
2022-09-01T22:10:51.521Z,101609.34
2022-09-01T22:13:23.207Z,101601.47
2022-09-01T22:15:52.292Z,101612.03
2022-09-01T22:18:20.475Z,101610.28
2022-09-01T22:20:47.335Z,101603.22
2022-09-01T22:23:15.207Z,101598.81
2022-09-01T22:25:46.040Z,101606.75
2022-09-01T22:28:12.879Z,101604.16
2022-09-01T22:30:47.077Z,101602.38
2022-09-01T22:33:16.305Z,101609.41
2022-09-01T22:35:45.050Z,101595.38
2022-09-01T22:38:12.573Z,101605.94
2022-09-01T22:40:47.864Z,101613.88
2022-09-01T22:43:18.518Z,101608.63
2022-09-01T22:45:46.820Z,101606.84
2022-09-01T22:48:14.667Z,101604.22
2022-09-01T22:50:42.706Z,101601.56
2022-09-01T22:53:10.274Z,101594.50
2022-09-01T22:55:38.830Z,101595.38
2022-09-01T22:58:06.921Z,101603.31
2022-09-01T23:00:34.811Z,101599.81
2022-09-01T23:03:01.634Z,101601.56
2022-09-01T23:05:29.470Z,101594.53
2022-09-01T23:07:58.458Z,101601.59
2022-09-01T23:10:28.170Z,101601.63
2022-09-01T23:12:54.907Z,101602.50
2022-09-01T23:15:21.565Z,101599.88
2022-09-01T23:17:48.216Z,101598.13
2022-09-01T23:20:15.468Z,101604.25
2022-09-01T23:22:43.611Z,101600.75
2022-09-01T23:25:12.971Z,101604.25
2022-09-01T23:27:40.215Z,101605.16
2022-09-01T23:30:11.165Z,101604.28
2022-09-01T23:32:38.029Z,101608.69
2022-09-01T23:35:04.889Z,101596.34
2022-09-01T23:37:31.669Z,101599.00
2022-09-01T23:39:58.584Z,101596.34
2022-09-01T23:42:25.392Z,101593.72
2022-09-01T23:44:52.031Z,101594.63
2022-09-01T23:47:18.691Z,101582.28
2022-09-01T23:49:46.797Z,101593.72
2022-09-01T23:52:13.763Z,101590.22
2022-09-01T23:54:40.370Z,101594.63
2022-09-01T23:57:07.116Z,101591.97
2022-09-01T23:59:33.730Z,101588.44
